Time;durP1;ratioP1;P1;durP2;ratioP2;P2;SDS_P1;SDS_P2;PMS_P1;PMS_P2;Temp;Humidity;BMP_temperature;BMP_pressure;BME280_temperature;BME280_humidity;BME280_pressure;Samples;Min_cycle;Max_cycle;Signal;HPM_P1;HPM_P2
2023/12/15 00:01:16;;;;;;;3.90;3.28;;;4.50;99.90;;;;;;4914582;29;20032;-80
2023/12/15 00:03:42;;;;;;;4.63;3.00;;;4.60;99.90;;;;;;4917345;29;20083;-80
2023/12/15 00:06:08;;;;;;;12.40;5.07;;;4.50;99.90;;;;;;4935295;29;20481;-79
2023/12/15 00:08:33;;;;;;;9.32;3.97;;;4.60;99.90;;;;;;4933009;29;20507;-77
2023/12/15 00:10:59;;;;;;;8.73;4.03;;;4.60;99.90;;;;;;4918877;29;20437;-78
2023/12/15 00:13:25;;;;;;;8.52;4.35;;;4.50;99.90;;;;;;4915475;29;20547;-78
2023/12/15 00:15:51;;;;;;;11.13;3.75;;;4.60;99.90;;;;;;4915408;29;20127;-80
2023/12/15 00:18:17;;;;;;;5.28;3.40;;;4.60;99.90;;;;;;4915569;29;20038;-79
2023/12/15 00:20:42;;;;;;;7.50;3.45;;;4.60;99.90;;;;;;4915143;29;20036;-77
2023/12/15 00:23:08;;;;;;;7.55;3.40;;;4.60;99.90;;;;;;4916818;29;20099;-77
2023/12/15 00:25:34;;;;;;;20.58;4.78;;;4.60;99.90;;;;;;4920268;29;20027;-78
2023/12/15 00:27:59;;;;;;;7.40;3.78;;;4.60;99.90;;;;;;4933729;29;20088;-78
2023/12/15 00:30:25;;;;;;;8.40;4.63;;;4.60;99.90;;;;;;4934077;29;20112;-78
2023/12/15 00:32:52;;;;;;;7.57;4.22;;;4.60;99.90;;;;;;4935230;29;20032;-78
2023/12/15 00:35:18;;;;;;;5.03;2.75;;;4.50;99.90;;;;;;4932222;29;20047;-77
2023/12/15 00:37:43;;;;;;;6.28;3.72;;;4.50;99.90;;;;;;4933823;29;20024;-77
2023/12/15 00:40:12;;;;;;;8.32;3.80;;;4.50;99.90;;;;;;4931814;29;20615;-78
2023/12/15 00:42:38;;;;;;;6.80;4.00;;;4.60;99.90;;;;;;4931683;29;20393;-78
2023/12/15 00:45:04;;;;;;;8.07;4.03;;;4.60;99.90;;;;;;4934525;29;20114;-78
2023/12/15 00:47:30;;;;;;;8.38;3.72;;;4.60;99.90;;;;;;4934477;29;20600;-77
2023/12/15 00:49:55;;;;;;;8.63;4.55;;;4.60;99.90;;;;;;4930578;29;20134;-77
2023/12/15 00:52:21;;;;;;;8.00;3.90;;;4.60;99.90;;;;;;4924702;29;20023;-79
2023/12/15 00:54:47;;;;;;;10.00;4.88;;;4.60;99.90;;;;;;4928286;29;20025;-77
2023/12/15 00:57:12;;;;;;;6.15;4.07;;;4.60;99.90;;;;;;4913948;29;20452;-78
2023/12/15 00:59:38;;;;;;;7.82;3.60;;;4.70;99.90;;;;;;4915764;29;20073;-78
2023/12/15 01:02:05;;;;;;;6.25;3.90;;;4.70;99.90;;;;;;4917929;29;20865;-78
2023/12/15 01:04:32;;;;;;;7.97;4.50;;;4.70;99.90;;;;;;4911964;29;20026;-78
2023/12/15 01:06:58;;;;;;;6.45;3.25;;;4.70;99.90;;;;;;4919243;29;20020;-78
2023/12/15 01:09:25;;;;;;;8.10;3.47;;;4.70;99.90;;;;;;4929137;29;20042;-78
2023/12/15 01:11:50;;;;;;;3.85;2.65;;;4.70;99.90;;;;;;4930435;29;20119;-78
2023/12/15 01:14:16;;;;;;;6.65;4.05;;;4.60;99.90;;;;;;4934505;29;20107;-78
2023/12/15 01:16:47;;;;;;;6.65;3.78;;;4.60;99.90;;;;;;4934464;29;20048;-78
2023/12/15 01:19:14;;;;;;;7.35;4.28;;;4.50;99.90;;;;;;4913959;29;20457;-78
2023/12/15 01:21:39;;;;;;;7.82;4.07;;;4.50;99.90;;;;;;4914180;29;20060;-77
2023/12/15 01:24:05;;;;;;;7.88;3.55;;;4.40;99.90;;;;;;4913789;29;20071;-78
2023/12/15 01:26:31;;;;;;;7.85;4.15;;;4.40;99.90;;;;;;4922982;29;20024;-76
2023/12/15 01:28:56;;;;;;;5.13;3.17;;;4.40;99.90;;;;;;4923254;29;20527;-77
2023/12/15 01:31:22;;;;;;;8.88;4.40;;;4.30;99.90;;;;;;4934561;29;20724;-78
2023/12/15 01:33:48;;;;;;;10.07;4.88;;;4.30;99.90;;;;;;4934459;29;20038;-80
2023/12/15 01:36:13;;;;;;;8.25;4.13;;;4.30;99.90;;;;;;4931510;29;20039;-78
2023/12/15 01:38:39;;;;;;;7.90;3.75;;;4.30;99.90;;;;;;4916860;29;20028;-77
2023/12/15 01:41:05;;;;;;;8.55;4.68;;;4.30;99.90;;;;;;4915052;29;20093;-78
2023/12/15 01:43:30;;;;;;;6.15;3.90;;;4.30;99.90;;;;;;4922007;29;20657;-78
2023/12/15 01:45:56;;;;;;;8.82;5.00;;;4.30;99.90;;;;;;4931902;29;20091;-78
2023/12/15 01:48:22;;;;;;;10.10;3.95;;;4.30;99.90;;;;;;4920567;29;20095;-78
2023/12/15 01:50:48;;;;;;;7.38;4.55;;;4.30;99.90;;;;;;4933450;29;20333;-80
2023/12/15 01:53:14;;;;;;;7.88;4.18;;;5.40;99.90;;;;;;4931785;29;20083;-79
2023/12/15 01:55:39;;;;;;;7.78;3.25;;;4.20;99.90;;;;;;4933179;29;20552;-79
2023/12/15 01:58:05;;;;;;;7.13;3.17;;;4.10;99.90;;;;;;4931940;29;20031;-80
2023/12/15 02:00:31;;;;;;;8.82;4.13;;;4.10;99.90;;;;;;4933043;29;20044;-81
2023/12/15 02:02:59;;;;;;;9.93;4.57;;;4.10;99.90;;;;;;4935231;29;20027;-81
2023/12/15 02:05:25;;;;;;;8.80;3.73;;;4.00;99.90;;;;;;4919895;29;20036;-81
2023/12/15 02:07:51;;;;;;;6.50;3.92;;;4.00;99.90;;;;;;4917785;29;20024;-80
2023/12/15 02:10:16;;;;;;;8.25;4.05;;;4.00;99.90;;;;;;4916749;29;20032;-82
2023/12/15 02:12:42;;;;;;;11.05;4.70;;;4.00;99.90;;;;;;4915345;29;20032;-81
2023/12/15 02:15:09;;;;;;;10.77;4.78;;;3.90;99.90;;;;;;4933745;29;20032;-81
2023/12/15 02:17:34;;;;;;;9.48;3.78;;;4.00;99.90;;;;;;4934443;29;20035;-81
2023/12/15 02:20:00;;;;;;;6.10;3.80;;;4.00;99.90;;;;;;4930243;29;20395;-81
2023/12/15 02:22:26;;;;;;;8.68;4.10;;;3.90;99.90;;;;;;4936880;29;20027;-81
2023/12/15 02:24:52;;;;;;;7.45;4.57;;;3.90;99.90;;;;;;4933757;29;20051;-79
2023/12/15 02:27:18;;;;;;;8.65;4.38;;;3.90;99.90;;;;;;4933100;29;20066;-80
2023/12/15 02:29:43;;;;;;;7.80;4.35;;;4.00;99.90;;;;;;4920913;29;20456;-79
2023/12/15 02:32:09;;;;;;;6.88;3.92;;;4.00;99.90;;;;;;4913888;29;20620;-79
2023/12/15 02:34:36;;;;;;;7.40;4.25;;;4.00;99.90;;;;;;4914232;29;20059;-79
2023/12/15 02:37:01;;;;;;;5.88;3.17;;;4.00;99.90;;;;;;4928782;29;20036;-80
2023/12/15 02:39:27;;;;;;;5.97;3.90;;;4.10;99.90;;;;;;4932962;29;20032;-80
2023/12/15 02:41:53;;;;;;;7.25;2.95;;;4.10;99.90;;;;;;4933208;29;20032;-80
2023/12/15 02:44:18;;;;;;;3.45;2.65;;;4.20;99.90;;;;;;4928532;29;20047;-79
2023/12/15 02:46:44;;;;;;;5.40;2.92;;;4.20;99.90;;;;;;4932990;29;20492;-80
2023/12/15 02:49:10;;;;;;;6.22;3.08;;;4.20;99.90;;;;;;4929768;29;20110;-79
2023/12/15 02:51:36;;;;;;;6.75;3.53;;;4.20;99.90;;;;;;4914171;29;20025;-80
2023/12/15 02:54:03;;;;;;;5.10;3.13;;;4.30;99.90;;;;;;4915274;29;20031;-81
2023/12/15 02:56:28;;;;;;;4.10;2.80;;;4.30;99.90;;;;;;4913416;29;20030;-80
2023/12/15 02:58:54;;;;;;;4.00;2.95;;;4.30;99.90;;;;;;4927590;29;20095;-77
2023/12/15 03:01:20;;;;;;;4.75;3.47;;;4.30;99.90;;;;;;4914696;29;20035;-77
2023/12/15 03:03:45;;;;;;;7.55;3.55;;;4.40;99.90;;;;;;4912962;29;20494;-76
2023/12/15 03:06:11;;;;;;;5.45;3.38;;;4.40;99.90;;;;;;4916431;29;20075;-77
2023/12/15 03:08:37;;;;;;;6.30;3.15;;;4.40;99.90;;;;;;4921359;29;20111;-77
2023/12/15 03:11:03;;;;;;;6.20;3.63;;;4.40;99.90;;;;;;4924713;29;20028;-78
2023/12/15 03:13:28;;;;;;;8.20;3.92;;;4.50;99.90;;;;;;4917401;29;20104;-78
2023/12/15 03:16:09;;;;;;;5.93;3.00;;;4.50;99.90;;;;;;4912230;29;20052;-77
2023/12/15 03:18:35;;;;;;;6.10;2.85;;;4.50;99.90;;;;;;4907467;29;20067;-78
2023/12/15 03:21:00;;;;;;;6.53;3.25;;;4.50;99.90;;;;;;4908419;29;20035;-75
2023/12/15 03:23:26;;;;;;;5.18;3.10;;;4.60;99.90;;;;;;4908285;29;20063;-80
2023/12/15 03:25:52;;;;;;;5.93;3.30;;;4.60;99.90;;;;;;4905992;29;20023;-81
2023/12/15 03:28:17;;;;;;;5.50;2.85;;;4.60;99.90;;;;;;4910223;29;20504;-81
2023/12/15 03:30:43;;;;;;;5.25;3.28;;;4.60;99.90;;;;;;4906239;29;20384;-80
2023/12/15 03:33:09;;;;;;;5.30;3.25;;;4.60;99.90;;;;;;4904879;29;20028;-80
2023/12/15 03:35:34;;;;;;;5.95;3.85;;;4.60;99.90;;;;;;4911818;29;21671;-82
2023/12/15 03:38:03;;;;;;;3.35;2.42;;;4.60;99.90;;;;;;4919384;29;20031;-81
2023/12/15 03:40:29;;;;;;;4.60;3.17;;;4.70;99.90;;;;;;4917731;29;20036;-79
2023/12/15 03:42:55;;;;;;;4.95;2.78;;;4.60;99.90;;;;;;4923793;29;20028;-80
2023/12/15 03:45:20;;;;;;;5.00;2.67;;;4.60;99.90;;;;;;4914625;29;20131;-80
2023/12/15 03:47:46;;;;;;;9.10;2.80;;;4.70;99.90;;;;;;4915519;29;20537;-80
2023/12/15 03:50:12;;;;;;;7.65;3.10;;;4.60;99.90;;;;;;4914396;29;20035;-80
2023/12/15 03:52:37;;;;;;;5.65;2.58;;;4.70;99.90;;;;;;4915269;29;20017;-81
2023/12/15 03:55:03;;;;;;;5.63;3.17;;;4.70;99.90;;;;;;4914966;29;20036;-80
2023/12/15 03:57:29;;;;;;;6.10;3.00;;;4.70;99.90;;;;;;4913208;29;20032;-81
2023/12/15 03:59:55;;;;;;;7.00;2.78;;;4.70;99.90;;;;;;4914351;29;20087;-81
2023/12/15 04:02:20;;;;;;;5.90;3.33;;;4.60;99.90;;;;;;4916005;29;20102;-80
2023/12/15 04:04:46;;;;;;;5.60;2.25;;;4.70;99.90;;;;;;4915681;29;20432;-80
2023/12/15 04:07:12;;;;;;;2.83;2.13;;;4.70;99.90;;;;;;4914422;29;20029;-81
2023/12/15 04:09:38;;;;;;;4.20;2.53;;;4.70;99.90;;;;;;4914913;29;20028;-80
2023/12/15 04:12:04;;;;;;;4.80;2.38;;;4.70;99.90;;;;;;4914978;29;20127;-80
2023/12/15 04:14:35;;;;;;;2.65;2.45;;;4.70;99.90;;;;;;4917112;29;20028;-81
2023/12/15 04:17:04;;;;;;;3.47;2.65;;;4.70;99.90;;;;;;4916390;29;20052;-81
2023/12/15 04:19:31;;;;;;;4.78;2.78;;;4.70;99.90;;;;;;4917744;29;20103;-79
2023/12/15 04:21:56;;;;;;;4.25;2.70;;;4.80;99.90;;;;;;4917492;29;20036;-79
2023/12/15 04:24:23;;;;;;;5.47;2.20;;;4.80;99.90;;;;;;4916407;29;20116;-79
2023/12/15 04:26:49;;;;;;;3.10;2.30;;;4.70;99.90;;;;;;4915431;29;20036;-78
2023/12/15 04:29:14;;;;;;;3.67;2.50;;;4.70;99.90;;;;;;4916215;29;20040;-79
2023/12/15 04:31:40;;;;;;;3.83;2.40;;;4.70;99.90;;;;;;4916780;29;20024;-78
2023/12/15 04:34:05;;;;;;;3.60;2.47;;;4.70;99.90;;;;;;4917392;29;20029;-79
2023/12/15 04:36:32;;;;;;;3.17;2.10;;;4.70;99.90;;;;;;4917408;29;20029;-79
2023/12/15 04:38:57;;;;;;;5.22;2.60;;;4.70;99.90;;;;;;4917357;29;20042;-81
2023/12/15 04:41:24;;;;;;;3.22;2.20;;;4.70;99.90;;;;;;4919048;29;20036;-81
2023/12/15 04:43:50;;;;;;;3.80;2.85;;;4.70;99.90;;;;;;4927325;29;20111;-81
2023/12/15 04:46:23;;;;;;;6.72;2.53;;;4.70;99.90;;;;;;4937187;29;20078;-81
2023/12/15 04:48:49;;;;;;;6.60;2.13;;;4.70;99.90;;;;;;4935920;29;20118;-81
2023/12/15 04:51:14;;;;;;;3.72;2.72;;;4.70;99.90;;;;;;4936094;29;20143;-81
2023/12/15 04:53:40;;;;;;;2.85;2.03;;;4.70;99.90;;;;;;4935447;29;20023;-81
2023/12/15 04:56:06;;;;;;;2.10;1.75;;;4.80;99.90;;;;;;4937332;29;20032;-81
2023/12/15 04:58:32;;;;;;;2.78;2.50;;;4.80;99.90;;;;;;4935356;29;20078;-81
2023/12/15 05:00:57;;;;;;;4.90;2.17;;;4.80;99.90;;;;;;4937248;29;20035;-81
2023/12/15 05:03:23;;;;;;;7.05;2.22;;;4.80;99.90;;;;;;4936136;29;20032;-82
2023/12/15 05:05:49;;;;;;;3.92;3.15;;;4.80;99.90;;;;;;4935969;29;20039;-81
2023/12/15 05:08:14;;;;;;;4.07;2.70;;;4.80;99.90;;;;;;4937603;29;20489;-80
2023/12/15 05:10:40;;;;;;;3.45;2.20;;;4.80;99.90;;;;;;4936553;29;20130;-81
2023/12/15 05:13:06;;;;;;;3.10;2.10;;;4.80;99.90;;;;;;4935671;29;20476;-81
2023/12/15 05:15:32;;;;;;;3.05;1.88;;;4.80;99.90;;;;;;4936349;29;20495;-81
2023/12/15 05:17:57;;;;;;;4.00;1.95;;;4.80;99.90;;;;;;4935064;29;20020;-81
2023/12/15 05:20:23;;;;;;;4.72;2.30;;;4.80;99.90;;;;;;4934931;29;20507;-81
2023/12/15 05:22:49;;;;;;;3.30;2.30;;;4.80;99.90;;;;;;4934757;29;20023;-81
2023/12/15 05:25:15;;;;;;;3.33;1.80;;;4.70;99.90;;;;;;4935580;29;20055;-81
2023/12/15 05:27:40;;;;;;;6.20;2.30;;;4.70;99.90;;;;;;4934550;29;20031;-81
2023/12/15 05:30:07;;;;;;;3.85;2.72;;;4.70;99.90;;;;;;4934877;29;20032;-82
2023/12/15 05:32:33;;;;;;;4.30;2.30;;;4.70;99.90;;;;;;4935119;29;20019;-82
2023/12/15 05:34:58;;;;;;;2.40;2.20;;;4.60;99.90;;;;;;4935013;29;20058;-82
2023/12/15 05:37:25;;;;;;;4.43;2.83;;;4.60;99.90;;;;;;4935054;29;20497;-80
2023/12/15 05:39:51;;;;;;;3.30;2.28;;;4.60;99.90;;;;;;4934562;29;20144;-79
2023/12/15 05:42:16;;;;;;;5.68;3.22;;;4.50;99.90;;;;;;4935869;29;20504;-80
2023/12/15 05:44:42;;;;;;;3.53;2.33;;;4.50;99.90;;;;;;4916056;29;20532;-79
2023/12/15 05:47:08;;;;;;;4.82;3.10;;;4.50;99.90;;;;;;4915786;29;20036;-79
2023/12/15 05:49:38;;;;;;;4.95;3.33;;;4.50;99.90;;;;;;4917672;29;20036;-80
2023/12/15 05:52:04;;;;;;;2.70;2.00;;;4.50;99.90;;;;;;4917871;29;20024;-81
2023/12/15 05:54:30;;;;;;;5.45;3.00;;;4.60;99.90;;;;;;4915845;29;20059;-81
2023/12/15 05:56:55;;;;;;;4.53;2.95;;;4.60;99.90;;;;;;4916617;29;20028;-81
2023/12/15 05:59:21;;;;;;;2.85;2.17;;;4.60;99.90;;;;;;4916535;29;20455;-81
2023/12/15 06:01:46;;;;;;;4.70;2.92;;;4.60;99.90;;;;;;4916348;29;20025;-81
2023/12/15 06:04:12;;;;;;;3.15;2.58;;;4.60;99.90;;;;;;4915846;29;20279;-81
2023/12/15 06:06:38;;;;;;;5.38;2.78;;;4.70;99.90;;;;;;4915912;29;20024;-81
2023/12/15 06:09:04;;;;;;;5.10;2.75;;;4.70;99.90;;;;;;4917424;29;20552;-82
2023/12/15 06:11:29;;;;;;;4.30;2.38;;;4.60;99.90;;;;;;4916951;29;20083;-82
2023/12/15 06:13:56;;;;;;;5.22;2.78;;;4.70;99.90;;;;;;4914731;29;20024;-81
2023/12/15 06:16:21;;;;;;;6.50;2.97;;;4.70;99.90;;;;;;4914465;29;20039;-81
2023/12/15 06:18:48;;;;;;;3.92;2.40;;;4.70;99.90;;;;;;4916541;29;20103;-82
2023/12/15 06:21:24;;;;;;;5.75;3.13;;;4.70;99.90;;;;;;4916858;29;20036;-81
2023/12/15 06:23:50;;;;;;;5.57;2.60;;;4.70;99.90;;;;;;4915222;29;20126;-81
2023/12/15 06:26:21;;;;;;;3.45;2.20;;;4.70;99.90;;;;;;4914219;29;20035;-81
2023/12/15 06:28:47;;;;;;;8.38;2.42;;;4.80;99.90;;;;;;4914815;29;20119;-81
2023/12/15 06:31:13;;;;;;;4.97;2.63;;;4.80;99.90;;;;;;4914731;29;20396;-82
2023/12/15 06:33:39;;;;;;;5.25;3.20;;;4.70;99.90;;;;;;4913965;29;20016;-81
2023/12/15 06:36:10;;;;;;;3.47;2.70;;;4.70;99.90;;;;;;4915422;29;20059;-78
2023/12/15 06:38:43;;;;;;;4.85;2.47;;;4.70;99.90;;;;;;4915324;29;20028;-79
2023/12/15 06:41:11;;;;;;;5.32;3.25;;;4.60;99.90;;;;;;4932349;29;20051;-79
2023/12/15 06:43:45;;;;;;;7.50;2.33;;;4.60;99.90;;;;;;4932828;29;20397;-80
2023/12/15 06:46:12;;;;;;;5.88;2.58;;;4.60;99.90;;;;;;4914683;29;20028;-80
2023/12/15 06:48:38;;;;;;;4.07;2.65;;;4.50;99.90;;;;;;4915043;29;20028;-80
2023/12/15 06:51:05;;;;;;;4.53;2.70;;;4.50;99.90;;;;;;4916747;29;20075;-79
2023/12/15 06:53:31;;;;;;;3.85;2.72;;;4.50;99.90;;;;;;4915381;29;20024;-79
2023/12/15 06:55:58;;;;;;;5.80;2.78;;;4.60;99.90;;;;;;4915015;29;20067;-79
2023/12/15 06:58:24;;;;;;;5.20;2.55;;;4.60;99.90;;;;;;4914306;29;20167;-79
2023/12/15 07:00:50;;;;;;;5.15;2.75;;;4.60;99.90;;;;;;4914858;29;20119;-79
2023/12/15 07:03:16;;;;;;;8.43;3.05;;;4.50;99.90;;;;;;4913841;29;20172;-79
2023/12/15 07:05:42;;;;;;;3.80;2.60;;;4.60;99.90;;;;;;4914542;29;20183;-79
2023/12/15 07:08:07;;;;;;;4.78;2.63;;;4.60;99.90;;;;;;4915031;29;20123;-75
2023/12/15 07:10:33;;;;;;;8.52;3.05;;;4.70;99.90;;;;;;4914328;29;20032;-74
2023/12/15 07:12:59;;;;;;;4.78;2.90;;;4.70;99.90;;;;;;4914311;29;20385;-75
2023/12/15 07:15:27;;;;;;;6.07;2.95;;;4.70;99.90;;;;;;4916162;29;20066;-74
2023/12/15 07:17:53;;;;;;;4.03;2.53;;;4.70;99.90;;;;;;4923621;29;20032;-73
2023/12/15 07:20:20;;;;;;;3.30;2.78;;;4.70;99.90;;;;;;4922134;29;20032;-74
2023/12/15 07:22:45;;;;;;;5.35;2.42;;;4.60;99.90;;;;;;4920975;29;20099;-75
2023/12/15 07:25:11;;;;;;;4.18;2.80;;;4.70;99.90;;;;;;4914515;29;20533;-74
2023/12/15 07:27:38;;;;;;;3.78;2.75;;;4.70;99.90;;;;;;4912322;29;20541;-74
2023/12/15 07:30:04;;;;;;;5.32;2.95;;;4.70;99.90;;;;;;4918885;29;20044;-75
2023/12/15 07:32:30;;;;;;;6.68;3.25;;;4.70;99.90;;;;;;4924451;29;20022;-75
2023/12/15 07:34:57;;;;;;;7.13;3.95;;;4.60;99.90;;;;;;4924540;29;20028;-76
2023/12/15 07:37:22;;;;;;;5.70;3.95;;;4.60;99.90;;;;;;4924263;29;20023;-75
2023/12/15 07:39:48;;;;;;;5.00;3.10;;;4.60;99.90;;;;;;4924246;29;20032;-76
2023/12/15 07:42:14;;;;;;;4.88;3.63;;;4.60;99.90;;;;;;4924278;29;20244;-76
2023/12/15 07:44:40;;;;;;;4.93;3.60;;;4.60;99.90;;;;;;4924102;29;20484;-75
2023/12/15 07:47:05;;;;;;;6.55;3.30;;;4.70;99.90;;;;;;4922917;29;20331;-75
2023/12/15 07:49:34;;;;;;;5.57;3.55;;;4.70;99.90;;;;;;4923567;29;20260;-75
2023/12/15 07:52:00;;;;;;;5.82;3.45;;;4.70;99.90;;;;;;4923461;29;20016;-76
2023/12/15 07:54:27;;;;;;;7.50;3.70;;;4.70;99.90;;;;;;4924459;29;20091;-77
2023/12/15 07:56:52;;;;;;;6.35;3.92;;;4.60;99.90;;;;;;4924298;29;20023;-77
2023/12/15 07:59:18;;;;;;;5.22;3.38;;;4.70;99.90;;;;;;4924086;29;20040;-76
2023/12/15 08:01:52;;;;;;;8.57;3.88;;;4.70;99.90;;;;;;4924358;29;20157;-75
2023/12/15 08:04:18;;;;;;;4.50;3.65;;;4.70;99.90;;;;;;4921668;29;20038;-75
2023/12/15 08:06:44;;;;;;;4.38;2.72;;;4.80;99.90;;;;;;4941062;29;20042;-75
2023/12/15 08:09:10;;;;;;;5.40;3.78;;;4.70;99.90;;;;;;4946320;29;20016;-77
2023/12/15 08:11:35;;;;;;;11.82;3.75;;;4.80;99.90;;;;;;4946264;29;20028;-75
2023/12/15 08:14:03;;;;;;;5.32;3.50;;;4.70;99.90;;;;;;4946057;29;20045;-76
2023/12/15 08:16:30;;;;;;;5.53;3.53;;;4.70;99.90;;;;;;4947048;29;20114;-74
2023/12/15 08:18:56;;;;;;;7.43;3.70;;;4.70;99.90;;;;;;4943611;29;20011;-74
2023/12/15 08:21:22;;;;;;;6.93;3.63;;;4.60;99.90;;;;;;4945536;29;20019;-75
2023/12/15 08:23:48;;;;;;;5.40;3.58;;;4.60;99.90;;;;;;4944780;29;20020;-76
2023/12/15 08:26:27;;;;;;;8.20;3.30;;;4.60;99.90;;;;;;4941940;29;20034;-75
2023/12/15 08:28:56;;;;;;;5.07;3.45;;;4.50;99.90;;;;;;4944643;29;20359;-76
2023/12/15 08:31:27;;;;;;;5.15;3.72;;;4.50;99.90;;;;;;4942900;29;20019;-75
2023/12/15 08:33:53;;;;;;;6.25;3.78;;;4.40;99.90;;;;;;4940318;29;20230;-75
2023/12/15 08:36:18;;;;;;;5.25;3.75;;;4.40;99.90;;;;;;4940500;29;20327;-75
2023/12/15 08:38:44;;;;;;;4.93;3.55;;;4.30;99.90;;;;;;4943973;29;20023;-74
2023/12/15 08:41:10;;;;;;;5.45;3.47;;;4.30;99.90;;;;;;4946097;29;20032;-74
2023/12/15 08:43:36;;;;;;;5.50;3.95;;;4.30;99.90;;;;;;4942411;29;20024;-75
2023/12/15 08:46:02;;;;;;;6.03;3.80;;;4.20;99.90;;;;;;4942835;29;20039;-79
2023/12/15 08:48:28;;;;;;;6.80;3.75;;;4.20;99.90;;;;;;4943398;29;20255;-75
2023/12/15 08:50:53;;;;;;;7.80;3.83;;;4.20;99.90;;;;;;4942714;29;20032;-74
2023/12/15 08:53:19;;;;;;;9.63;4.63;;;4.30;99.90;;;;;;4943195;29;20031;-76
2023/12/15 08:55:45;;;;;;;5.70;4.03;;;4.30;99.90;;;;;;4943675;29;20424;-76
2023/12/15 08:58:11;;;;;;;8.40;4.43;;;4.30;99.90;;;;;;4939333;29;20038;-74
2023/12/15 09:00:37;;;;;;;7.45;4.00;;;4.40;99.90;;;;;;4945998;29;20059;-75
2023/12/15 09:03:03;;;;;;;6.35;3.63;;;4.40;99.90;;;;;;4943440;29;20059;-75
2023/12/15 09:05:30;;;;;;;10.70;5.07;;;4.40;99.90;;;;;;4943964;29;20028;-75
2023/12/15 09:07:56;;;;;;;9.48;4.28;;;4.50;99.90;;;;;;4945425;29;20046;-75
2023/12/15 09:10:22;;;;;;;15.48;4.80;;;4.50;99.90;;;;;;4944671;29;20057;-75
2023/12/15 09:12:49;;;;;;;7.65;3.33;;;4.60;99.90;;;;;;4940496;29;20284;-75
2023/12/15 09:15:14;;;;;;;8.75;3.80;;;4.70;99.90;;;;;;4937896;29;20044;-75
2023/12/15 09:17:42;;;;;;;6.57;3.22;;;4.70;99.90;;;;;;4943982;29;20094;-76
2023/12/15 09:20:10;;;;;;;9.93;4.05;;;4.70;99.90;;;;;;4943416;29;20428;-76
2023/12/15 09:22:36;;;;;;;7.55;3.08;;;4.70;99.90;;;;;;4939884;29;20028;-75
2023/12/15 09:25:01;;;;;;;5.55;3.33;;;4.70;99.90;;;;;;4943020;29;20071;-76
2023/12/15 09:27:27;;;;;;;7.78;3.33;;;4.80;99.90;;;;;;4940407;29;20024;-76
2023/12/15 09:29:53;;;;;;;4.18;2.70;;;4.80;99.90;;;;;;4940544;29;20200;-76
2023/12/15 09:32:20;;;;;;;8.20;3.03;;;4.80;99.90;;;;;;4932506;29;20032;-75
2023/12/15 09:34:46;;;;;;;9.70;4.05;;;4.80;99.90;;;;;;4932878;29;20114;-72
2023/12/15 09:37:12;;;;;;;10.80;4.03;;;4.90;99.90;;;;;;4932299;29;20102;-72
2023/12/15 09:39:38;;;;;;;9.27;3.58;;;5.00;99.90;;;;;;4933699;29;20068;-73
2023/12/15 09:42:07;;;;;;;7.70;3.47;;;5.10;99.90;;;;;;4933118;29;20031;-72
2023/12/15 09:44:33;;;;;;;5.72;3.47;;;5.30;99.90;;;;;;4932190;29;20027;-73
2023/12/15 09:46:59;;;;;;;8.35;4.15;;;5.40;99.90;;;;;;4935508;29;20055;-76
2023/12/15 09:49:25;;;;;;;8.57;3.55;;;5.40;99.90;;;;;;4936609;29;20211;-77
2023/12/15 09:51:52;;;;;;;6.70;3.28;;;5.60;99.90;;;;;;4942055;29;20050;-76
2023/12/15 09:54:19;;;;;;;4.72;3.53;;;5.60;99.90;;;;;;4938613;29;20036;-76
2023/12/15 09:56:48;;;;;;;6.28;4.25;;;5.70;99.90;;;;;;4934190;29;20024;-77
2023/12/15 09:59:14;;;;;;;10.05;4.65;;;5.80;99.90;;;;;;4934862;29;20024;-73
2023/12/15 10:01:40;;;;;;;6.28;3.50;;;5.80;99.90;;;;;;4933069;29;20530;-74
2023/12/15 10:04:06;;;;;;;5.70;3.17;;;5.90;99.90;;;;;;4932420;29;20083;-75
2023/12/15 10:06:36;;;;;;;10.75;3.95;;;5.90;99.90;;;;;;4933624;29;20031;-78
2023/12/15 10:09:03;;;;;;;6.93;3.42;;;6.00;99.90;;;;;;4935991;29;20106;-72
2023/12/15 10:11:32;;;;;;;4.05;3.00;;;6.20;99.90;;;;;;4934207;29;20607;-76
2023/12/15 10:14:03;;;;;;;6.90;3.70;;;6.20;99.90;;;;;;4932573;29;20211;-76
2023/12/15 10:16:29;;;;;;;5.10;3.17;;;6.30;99.90;;;;;;4931899;29;20043;-74
2023/12/15 10:18:55;;;;;;;9.15;4.38;;;6.50;99.90;;;;;;4934023;29;20039;-74
2023/12/15 10:21:20;;;;;;;6.07;2.50;;;6.50;99.90;;;;;;4933785;29;20032;-76
2023/12/15 10:23:46;;;;;;;3.45;2.38;;;6.50;99.90;;;;;;4937517;29;20024;-78
2023/12/15 10:26:12;;;;;;;3.83;2.10;;;6.50;99.90;;;;;;4933789;29;20024;-77
2023/12/15 10:28:39;;;;;;;4.95;2.70;;;6.50;99.90;;;;;;4933161;29;20082;-75
2023/12/15 10:31:08;;;;;;;5.43;2.30;;;6.50;99.90;;;;;;4934344;29;20087;-77
2023/12/15 10:33:35;;;;;;;3.33;2.40;;;6.60;99.90;;;;;;4931362;29;20038;-76
2023/12/15 10:36:01;;;;;;;3.38;1.92;;;6.60;99.90;;;;;;4931133;29;20032;-76
2023/12/15 10:38:30;;;;;;;2.35;1.73;;;6.80;99.90;;;;;;4933217;29;20027;-77
2023/12/15 10:40:57;;;;;;;4.75;1.90;;;6.90;99.90;;;;;;4933845;29;20427;-76
2023/12/15 10:43:24;;;;;;;2.33;2.00;;;7.00;99.90;;;;;;4925046;29;20478;-74
2023/12/15 10:45:52;;;;;;;3.63;2.25;;;7.10;99.90;;;;;;4915043;29;20032;-76
2023/12/15 10:48:18;;;;;;;2.78;2.28;;;7.30;99.90;;;;;;4901408;29;20036;-78
2023/12/15 10:50:48;;;;;;;3.13;1.83;;;7.30;99.90;;;;;;4919288;29;20036;-80
2023/12/15 10:53:14;;;;;;;;;;;7.40;99.90;;;;;;4914430;29;20473;-78
2023/12/15 10:55:45;;;;;;;6.07;2.03;;;7.40;99.90;;;;;;4913760;29;19911;-77
2023/12/15 10:58:12;;;;;;;4.47;1.92;;;7.50;99.90;;;;;;4912475;29;20032;-77
2023/12/15 11:00:38;;;;;;;5.25;1.80;;;7.70;99.90;;;;;;4917398;29;20067;-74
2023/12/15 11:03:10;;;;;;;4.65;1.48;;;7.80;99.90;;;;;;4914621;29;20039;-74
2023/12/15 11:05:37;;;;;;;2.50;1.35;;;7.90;99.90;;;;;;4917976;29;20036;-75
2023/12/15 11:08:04;;;;;;;2.33;1.35;;;7.90;99.90;;;;;;4916634;29;20461;-75
2023/12/15 11:10:30;;;;;;;3.10;2.28;;;7.90;99.90;;;;;;4918710;29;20031;-75
2023/12/15 11:12:55;;;;;;;4.35;2.20;;;8.00;99.90;;;;;;4917471;29;20076;-74
2023/12/15 11:15:22;;;;;;;2.83;2.10;;;8.00;99.90;;;;;;4916462;29;20047;-76
2023/12/15 11:17:53;;;;;;;3.88;2.25;;;7.90;99.90;;;;;;4916319;29;20067;-76
2023/12/15 11:20:22;;;;;;;2.85;1.90;;;7.80;99.90;;;;;;4917293;29;20067;-76
2023/12/15 11:23:11;;;;;;;3.92;1.70;;;7.80;99.90;;;;;;4917292;29;20032;-76
2023/12/15 11:25:57;;;;;;;1.73;1.33;;;7.80;99.90;;;;;;4916890;29;20429;-76
2023/12/15 11:28:22;;;;;;;5.20;1.45;;;7.70;99.90;;;;;;4914985;29;20035;-76
2023/12/15 11:30:52;;;;;;;3.50;1.55;;;7.50;99.90;;;;;;4913612;29;20024;-77
2023/12/15 11:33:22;;;;;;;2.17;1.10;;;7.50;99.90;;;;;;4914698;29;20028;-76
2023/12/15 11:36:03;;;;;;;5.28;1.60;;;7.20;99.90;;;;;;4916424;29;20024;-76
2023/12/15 11:38:29;;;;;;;3.63;1.25;;;7.20;99.90;;;;;;4917934;29;20492;-76
2023/12/15 11:40:56;;;;;;;1.67;1.08;;;7.30;99.90;;;;;;4915004;29;20052;-78
2023/12/15 11:43:25;;;;;;;2.65;1.52;;;7.40;99.90;;;;;;4924617;29;20028;-77
2023/12/15 11:45:53;;;;;;;3.88;1.40;;;7.30;99.90;;;;;;4938985;29;20032;-74
2023/12/15 11:48:19;;;;;;;1.23;1.13;;;7.20;99.90;;;;;;4937688;29;20062;-74
2023/12/15 11:50:46;;;;;;;5.55;1.80;;;7.20;99.90;;;;;;4922990;29;20357;-74
2023/12/15 11:53:14;;;;;;;6.22;1.30;;;7.20;99.90;;;;;;4940176;29;20057;-74
2023/12/15 11:55:41;;;;;;;3.28;1.60;;;7.20;99.90;;;;;;4937341;29;20047;-75
2023/12/15 11:58:07;;;;;;;2.60;1.65;;;7.30;99.90;;;;;;4936069;29;20075;-76
2023/12/15 12:00:33;;;;;;;1.65;1.38;;;7.10;99.90;;;;;;4938352;29;20516;-74
2023/12/15 12:03:00;;;;;;;2.00;1.80;;;7.10;99.90;;;;;;4940529;29;20106;-74
2023/12/15 12:05:29;;;;;;;4.40;1.60;;;7.00;99.90;;;;;;4944183;29;20079;-74
2023/12/15 12:07:56;;;;;;;3.50;1.67;;;7.00;99.90;;;;;;4944194;29;20559;-75
2023/12/15 12:10:31;;;;;;;3.83;1.67;;;6.90;99.90;;;;;;4940611;29;20039;-75
2023/12/15 12:12:58;;;;;;;2.80;1.98;;;6.80;99.90;;;;;;4939803;29;20020;-76
2023/12/15 12:15:23;;;;;;;2.17;1.70;;;6.80;99.90;;;;;;4936921;29;20060;-76
2023/12/15 12:17:51;;;;;;;2.08;1.38;;;6.70;99.90;;;;;;4936947;29;20028;-74
2023/12/15 12:20:17;;;;;;;2.38;1.55;;;6.70;99.90;;;;;;4940027;29;20126;-81
2023/12/15 12:22:44;;;;;;;3.53;1.70;;;6.70;99.90;;;;;;4941472;29;20058;-80
2023/12/15 12:25:11;;;;;;;3.30;1.55;;;6.80;99.90;;;;;;4952808;29;20028;-81
2023/12/15 12:27:37;;;;;;;3.13;1.70;;;6.90;99.90;;;;;;4956806;29;20020;-81
2023/12/15 12:30:12;;;;;;;2.53;1.45;;;7.10;99.90;;;;;;4946332;29;20034;-82
2023/12/15 12:32:39;;;;;;;2.50;1.83;;;7.10;99.90;;;;;;4946702;29;20028;-81
2023/12/15 12:35:05;;;;;;;1.80;1.63;;;7.20;99.90;;;;;;4947456;29;20032;-79
2023/12/15 12:37:32;;;;;;;2.97;1.55;;;7.30;99.90;;;;;;4945679;29;20050;-80
2023/12/15 12:39:58;;;;;;;2.60;1.40;;;7.30;99.90;;;;;;4941513;29;20095;-80
2023/12/15 12:42:26;;;;;;;3.50;1.52;;;7.20;99.90;;;;;;4940011;29;20031;-81
2023/12/15 12:44:54;;;;;;;4.07;1.90;;;7.20;99.90;;;;;;4922666;29;20196;-81
2023/12/15 12:47:20;;;;;;;3.35;1.60;;;7.20;99.90;;;;;;4920719;29;20020;-79
2023/12/15 12:49:46;;;;;;;3.83;1.38;;;7.30;99.90;;;;;;4920673;29;20032;-80
2023/12/15 12:52:15;;;;;;;3.42;1.90;;;7.20;99.90;;;;;;4917228;29;20035;-79
2023/12/15 12:54:40;;;;;;;2.53;1.90;;;7.20;99.90;;;;;;4915403;29;20095;-80